sensor_id;sensor_type;location;lat;lon;timestamp;pressure;altitude;pressure_sealevel;temperature;humidity
21623;BME280;10973;46.706;12.340;2023-01-26T00:01:26;87343.31;;;-3.96;50.49
21623;BME280;10973;46.706;12.340;2023-01-26T00:03:54;87334.44;;;-4.03;50.10
21623;BME280;10973;46.706;12.340;2023-01-26T00:06:23;87334.53;;;-4.08;50.21
21623;BME280;10973;46.706;12.340;2023-01-26T00:08:54;87331.09;;;-4.17;50.00
21623;BME280;10973;46.706;12.340;2023-01-26T00:11:25;87329.28;;;-4.17;50.00
21623;BME280;10973;46.706;12.340;2023-01-26T00:13:54;87323.28;;;-4.26;49.76
21623;BME280;10973;46.706;12.340;2023-01-26T00:16:22;87321.28;;;-4.29;50.36
21623;BME280;10973;46.706;12.340;2023-01-26T00:18:50;87327.41;;;-4.39;50.32
21623;BME280;10973;46.706;12.340;2023-01-26T00:21:20;87319.09;;;-4.36;50.43
21623;BME280;10973;46.706;12.340;2023-01-26T00:23:50;87317.84;;;-4.38;50.31
21623;BME280;10973;46.706;12.340;2023-01-26T00:26:24;87314.63;;;-4.44;50.63
21623;BME280;10973;46.706;12.340;2023-01-26T00:28:52;87309.00;;;-4.46;50.39
21623;BME280;10973;46.706;12.340;2023-01-26T00:31:25;87312.22;;;-4.54;50.24
21623;BME280;10973;46.706;12.340;2023-01-26T00:33:54;87304.97;;;-4.52;49.87
21623;BME280;10973;46.706;12.340;2023-01-26T00:36:21;87312.31;;;-4.59;49.88
21623;BME280;10973;46.706;12.340;2023-01-26T00:38:49;87301.75;;;-4.71;49.72
21623;BME280;10973;46.706;12.340;2023-01-26T00:41:16;87300.97;;;-4.71;50.16
21623;BME280;10973;46.706;12.340;2023-01-26T00:43:43;87294.59;;;-4.74;50.33
21623;BME280;10973;46.706;12.340;2023-01-26T00:46:11;87292.97;;;-4.70;50.64
21623;BME280;10973;46.706;12.340;2023-01-26T00:48:38;87288.31;;;-4.68;50.69
21623;BME280;10973;46.706;12.340;2023-01-26T00:51:05;87285.53;;;-4.71;50.25
21623;BME280;10973;46.706;12.340;2023-01-26T00:53:32;87285.25;;;-4.70;50.20
21623;BME280;10973;46.706;12.340;2023-01-26T00:55:59;87279.94;;;-4.73;49.85
21623;BME280;10973;46.706;12.340;2023-01-26T00:58:27;87284.38;;;-4.79;50.04
21623;BME280;10973;46.706;12.340;2023-01-26T01:00:54;87278.28;;;-4.96;49.82
21623;BME280;10973;46.706;12.340;2023-01-26T01:03:21;87284.91;;;-5.09;49.26
21623;BME280;10973;46.706;12.340;2023-01-26T01:05:49;87275.75;;;-5.15;48.86
21623;BME280;10973;46.706;12.340;2023-01-26T01:08:16;87283.63;;;-5.25;49.68
21623;BME280;10973;46.706;12.340;2023-01-26T01:10:44;87278.03;;;-5.27;49.20
21623;BME280;10973;46.706;12.340;2023-01-26T01:13:11;87278.50;;;-5.25;50.07
21623;BME280;10973;46.706;12.340;2023-01-26T01:15:39;87270.31;;;-5.27;49.51
21623;BME280;10973;46.706;12.340;2023-01-26T01:18:06;87273.34;;;-5.25;49.68
21623;BME280;10973;46.706;12.340;2023-01-26T01:20:33;87280.59;;;-5.27;49.55
21623;BME280;10973;46.706;12.340;2023-01-26T01:23:00;87270.38;;;-5.32;49.35
21623;BME280;10973;46.706;12.340;2023-01-26T01:25:28;87270.66;;;-5.34;49.98
21623;BME280;10973;46.706;12.340;2023-01-26T01:27:55;87268.66;;;-5.37;50.04
21623;BME280;10973;46.706;12.340;2023-01-26T01:30:22;87268.19;;;-5.39;49.35
21623;BME280;10973;46.706;12.340;2023-01-26T01:32:49;87262.66;;;-5.46;49.15
21623;BME280;10973;46.706;12.340;2023-01-26T01:35:17;87263.00;;;-5.52;49.40
21623;BME280;10973;46.706;12.340;2023-01-26T01:37:44;87255.84;;;-5.55;49.57
21623;BME280;10973;46.706;12.340;2023-01-26T01:40:12;87246.84;;;-5.53;49.38
21623;BME280;10973;46.706;12.340;2023-01-26T01:42:47;87247.69;;;-5.57;49.53
21623;BME280;10973;46.706;12.340;2023-01-26T01:47:58;87243.78;;;-5.55;49.35
21623;BME280;10973;46.706;12.340;2023-01-26T01:50:35;87241.22;;;-5.55;49.73
21623;BME280;10973;46.706;12.340;2023-01-26T01:53:07;87240.94;;;-5.53;49.56
21623;BME280;10973;46.706;12.340;2023-01-26T01:55:39;87237.59;;;-5.54;49.49
21623;BME280;10973;46.706;12.340;2023-01-26T01:58:07;87241.72;;;-5.71;49.65
21623;BME280;10973;46.706;12.340;2023-01-26T02:00:35;87233.00;;;-5.70;49.09
21623;BME280;10973;46.706;12.340;2023-01-26T02:03:08;87239.22;;;-5.77;49.00
21623;BME280;10973;46.706;12.340;2023-01-26T02:05:55;87237.72;;;-5.78;49.34
21623;BME280;10973;46.706;12.340;2023-01-26T02:08:45;87229.31;;;-5.83;49.40
21623;BME280;10973;46.706;12.340;2023-01-26T02:11:19;87224.03;;;-5.87;49.33
21623;BME280;10973;46.706;12.340;2023-01-26T02:13:48;87222.72;;;-5.84;49.52
21623;BME280;10973;46.706;12.340;2023-01-26T02:16:17;87227.63;;;-5.88;49.31
21623;BME280;10973;46.706;12.340;2023-01-26T02:18:45;87219.94;;;-5.88;49.12
21623;BME280;10973;46.706;12.340;2023-01-26T02:21:20;87219.25;;;-5.93;49.26
21623;BME280;10973;46.706;12.340;2023-01-26T02:24:24;87216.94;;;-5.95;49.33
21623;BME280;10973;46.706;12.340;2023-01-26T02:26:53;87216.22;;;-5.95;49.48
21623;BME280;10973;46.706;12.340;2023-01-26T02:29:21;87211.06;;;-5.95;49.58
21623;BME280;10973;46.706;12.340;2023-01-26T02:31:48;87214.97;;;-5.98;49.56
21623;BME280;10973;46.706;12.340;2023-01-26T02:34:16;87207.53;;;-5.99;49.75
21623;BME280;10973;46.706;12.340;2023-01-26T02:36:43;87214.13;;;-6.12;48.82
21623;BME280;10973;46.706;12.340;2023-01-26T02:41:52;87200.91;;;-6.19;49.47
21623;BME280;10973;46.706;12.340;2023-01-26T02:44:20;87196.72;;;-6.15;49.19
21623;BME280;10973;46.706;12.340;2023-01-26T02:46:48;87192.38;;;-6.14;49.64
21623;BME280;10973;46.706;12.340;2023-01-26T02:49:15;87197.22;;;-6.13;49.61
21623;BME280;10973;46.706;12.340;2023-01-26T02:51:43;87185.81;;;-6.20;49.62
21623;BME280;10973;46.706;12.340;2023-01-26T02:54:10;87192.91;;;-6.17;49.26
21623;BME280;10973;46.706;12.340;2023-01-26T02:56:37;87185.50;;;-6.19;49.31
21623;BME280;10973;46.706;12.340;2023-01-26T02:59:05;87180.66;;;-6.20;49.08
21623;BME280;10973;46.706;12.340;2023-01-26T03:01:32;87184.00;;;-6.38;48.59
21623;BME280;10973;46.706;12.340;2023-01-26T03:03:59;87186.56;;;-6.38;48.56
21623;BME280;10973;46.706;12.340;2023-01-26T03:06:27;87177.63;;;-6.41;49.23
21623;BME280;10973;46.706;12.340;2023-01-26T03:08:54;87180.94;;;-6.40;49.14
21623;BME280;10973;46.706;12.340;2023-01-26T03:11:21;87177.19;;;-6.48;49.49
21623;BME280;10973;46.706;12.340;2023-01-26T03:13:48;87171.66;;;-6.55;49.02
21623;BME280;10973;46.706;12.340;2023-01-26T03:16:16;87174.16;;;-6.50;48.94
21623;BME280;10973;46.706;12.340;2023-01-26T03:18:43;87178.28;;;-6.54;49.04
21623;BME280;10973;46.706;12.340;2023-01-26T03:21:14;87175.34;;;-6.61;48.36
21623;BME280;10973;46.706;12.340;2023-01-26T03:23:42;87169.69;;;-6.63;49.10
21623;BME280;10973;46.706;12.340;2023-01-26T03:26:09;87169.22;;;-6.65;49.13
21623;BME280;10973;46.706;12.340;2023-01-26T03:28:37;87171.78;;;-6.65;49.29
21623;BME280;10973;46.706;12.340;2023-01-26T03:31:05;87160.84;;;-6.71;48.94
21623;BME280;10973;46.706;12.340;2023-01-26T03:33:33;87171.16;;;-6.76;49.01
21623;BME280;10973;46.706;12.340;2023-01-26T03:36:00;87167.63;;;-6.80;48.55
21623;BME280;10973;46.706;12.340;2023-01-26T03:38:28;87155.59;;;-6.79;48.95
21623;BME280;10973;46.706;12.340;2023-01-26T03:40:58;87161.78;;;-6.85;48.93
21623;BME280;10973;46.706;12.340;2023-01-26T03:43:25;87163.81;;;-6.82;49.08
21623;BME280;10973;46.706;12.340;2023-01-26T03:45:53;87157.44;;;-6.85;49.40
21623;BME280;10973;46.706;12.340;2023-01-26T03:48:20;87149.75;;;-6.85;48.89
21623;BME280;10973;46.706;12.340;2023-01-26T03:50:47;87160.19;;;-6.81;49.49
21623;BME280;10973;46.706;12.340;2023-01-26T03:53:23;87155.66;;;-6.84;49.06
21623;BME280;10973;46.706;12.340;2023-01-26T03:55:50;87156.13;;;-6.82;49.26
21623;BME280;10973;46.706;12.340;2023-01-26T03:58:17;87150.25;;;-6.83;49.59
21623;BME280;10973;46.706;12.340;2023-01-26T04:00:48;87151.19;;;-6.79;49.33
21623;BME280;10973;46.706;12.340;2023-01-26T04:03:16;87146.56;;;-6.77;49.47
21623;BME280;10973;46.706;12.340;2023-01-26T04:05:43;87138.63;;;-6.75;49.41
21623;BME280;10973;46.706;12.340;2023-01-26T04:08:10;87133.75;;;-6.77;49.27
21623;BME280;10973;46.706;12.340;2023-01-26T04:10:37;87139.66;;;-6.76;49.59
21623;BME280;10973;46.706;12.340;2023-01-26T04:13:05;87140.75;;;-6.82;49.35
21623;BME280;10973;46.706;12.340;2023-01-26T04:15:34;87135.09;;;-6.79;49.29
21623;BME280;10973;46.706;12.340;2023-01-26T04:18:07;87133.38;;;-6.84;48.73
21623;BME280;10973;46.706;12.340;2023-01-26T04:20:34;87126.69;;;-6.85;49.11
21623;BME280;10973;46.706;12.340;2023-01-26T04:23:02;87132.94;;;-6.91;49.25
21623;BME280;10973;46.706;12.340;2023-01-26T04:25:29;87122.91;;;-6.87;49.58
21623;BME280;10973;46.706;12.340;2023-01-26T04:27:56;87125.16;;;-6.86;49.17
21623;BME280;10973;46.706;12.340;2023-01-26T04:30:23;87122.69;;;-6.91;49.20
21623;BME280;10973;46.706;12.340;2023-01-26T04:32:51;87114.59;;;-6.98;48.83
21623;BME280;10973;46.706;12.340;2023-01-26T04:35:18;87116.50;;;-7.08;48.96
21623;BME280;10973;46.706;12.340;2023-01-26T04:37:51;87113.94;;;-7.08;49.01
21623;BME280;10973;46.706;12.340;2023-01-26T04:40:20;87113.59;;;-7.20;49.44
21623;BME280;10973;46.706;12.340;2023-01-26T04:42:48;87120.16;;;-7.14;49.48
21623;BME280;10973;46.706;12.340;2023-01-26T04:45:15;87109.91;;;-7.14;49.25
21623;BME280;10973;46.706;12.340;2023-01-26T04:47:42;87108.94;;;-7.18;49.14
21623;BME280;10973;46.706;12.340;2023-01-26T04:50:10;87104.72;;;-7.28;49.47
21623;BME280;10973;46.706;12.340;2023-01-26T04:52:37;87115.16;;;-7.25;49.28
21623;BME280;10973;46.706;12.340;2023-01-26T04:55:05;87118.47;;;-7.24;49.47
21623;BME280;10973;46.706;12.340;2023-01-26T04:57:32;87111.28;;;-7.22;49.46
21623;BME280;10973;46.706;12.340;2023-01-26T04:59:59;87109.00;;;-7.23;49.17
21623;BME280;10973;46.706;12.340;2023-01-26T05:02:26;87111.13;;;-7.31;49.17
21623;BME280;10973;46.706;12.340;2023-01-26T05:04:54;87114.06;;;-7.42;48.99
21623;BME280;10973;46.706;12.340;2023-01-26T05:07:21;87118.94;;;-7.41;49.64
21623;BME280;10973;46.706;12.340;2023-01-26T05:09:48;87105.63;;;-7.43;49.27
21623;BME280;10973;46.706;12.340;2023-01-26T05:12:15;87108.28;;;-7.48;49.11
21623;BME280;10973;46.706;12.340;2023-01-26T05:14:43;87104.13;;;-7.44;49.76
21623;BME280;10973;46.706;12.340;2023-01-26T05:17:10;87109.25;;;-7.44;49.48
21623;BME280;10973;46.706;12.340;2023-01-26T05:19:37;87107.16;;;-7.42;49.12
21623;BME280;10973;46.706;12.340;2023-01-26T05:22:05;87102.06;;;-7.42;49.92
21623;BME280;10973;46.706;12.340;2023-01-26T05:24:33;87101.09;;;-7.46;49.97
21623;BME280;10973;46.706;12.340;2023-01-26T05:27:01;87109.69;;;-7.37;50.03
21623;BME280;10973;46.706;12.340;2023-01-26T05:29:28;87104.06;;;-7.39;49.47
21623;BME280;10973;46.706;12.340;2023-01-26T05:31:56;87100.03;;;-7.45;49.35
21623;BME280;10973;46.706;12.340;2023-01-26T05:34:23;87113.59;;;-7.44;49.30
21623;BME280;10973;46.706;12.340;2023-01-26T05:36:50;87105.22;;;-7.50;49.09
21623;BME280;10973;46.706;12.340;2023-01-26T05:39:18;87104.94;;;-7.48;49.49
21623;BME280;10973;46.706;12.340;2023-01-26T05:41:45;87102.00;;;-7.60;49.30
21623;BME280;10973;46.706;12.340;2023-01-26T05:44:12;87106.09;;;-7.59;49.02
21623;BME280;10973;46.706;12.340;2023-01-26T05:46:39;87101.50;;;-7.62;49.07
21623;BME280;10973;46.706;12.340;2023-01-26T05:49:07;87110.25;;;-7.63;48.71
21623;BME280;10973;46.706;12.340;2023-01-26T05:51:37;87111.06;;;-7.68;49.36
21623;BME280;10973;46.706;12.340;2023-01-26T05:54:06;87108.75;;;-7.69;49.58
21623;BME280;10973;46.706;12.340;2023-01-26T05:56:34;87119.34;;;-7.81;48.45
21623;BME280;10973;46.706;12.340;2023-01-26T05:59:01;87112.81;;;-7.92;48.01
21623;BME280;10973;46.706;12.340;2023-01-26T06:01:29;87120.47;;;-7.92;48.65
21623;BME280;10973;46.706;12.340;2023-01-26T06:03:56;87119.94;;;-7.89;49.54
21623;BME280;10973;46.706;12.340;2023-01-26T06:06:23;87125.59;;;-7.92;49.09
21623;BME280;10973;46.706;12.340;2023-01-26T06:08:50;87112.56;;;-7.90;49.45
21623;BME280;10973;46.706;12.340;2023-01-26T06:11:18;87129.13;;;-7.88;48.71
21623;BME280;10973;46.706;12.340;2023-01-26T06:13:45;87131.19;;;-7.90;49.52
21623;BME280;10973;46.706;12.340;2023-01-26T06:16:12;87128.09;;;-7.87;49.43
21623;BME280;10973;46.706;12.340;2023-01-26T06:18:39;87123.47;;;-7.85;49.50
21623;BME280;10973;46.706;12.340;2023-01-26T06:21:07;87114.31;;;-7.86;49.89
21623;BME280;10973;46.706;12.340;2023-01-26T06:23:34;87121.97;;;-7.86;49.78
21623;BME280;10973;46.706;12.340;2023-01-26T06:26:01;87114.56;;;-7.87;49.90
21623;BME280;10973;46.706;12.340;2023-01-26T06:28:29;87111.50;;;-7.89;49.62
21623;BME280;10973;46.706;12.340;2023-01-26T06:31:02;87112.00;;;-7.87;49.84
21623;BME280;10973;46.706;12.340;2023-01-26T06:33:35;87115.38;;;-7.92;49.40
21623;BME280;10973;46.706;12.340;2023-01-26T06:36:09;87106.72;;;-7.96;49.54
21623;BME280;10973;46.706;12.340;2023-01-26T06:38:38;87109.50;;;-7.92;50.20
21623;BME280;10973;46.706;12.340;2023-01-26T06:41:07;87098.53;;;-7.93;49.50
21623;BME280;10973;46.706;12.340;2023-01-26T06:43:35;87097.22;;;-7.90;49.42
21623;BME280;10973;46.706;12.340;2023-01-26T06:46:05;87103.41;;;-7.97;49.92
21623;BME280;10973;46.706;12.340;2023-01-26T06:48:33;87102.63;;;-7.97;49.44
21623;BME280;10973;46.706;12.340;2023-01-26T06:53:57;87095.78;;;-8.02;49.32
21623;BME280;10973;46.706;12.340;2023-01-26T06:56:24;87096.31;;;-8.05;49.54
21623;BME280;10973;46.706;12.340;2023-01-26T06:58:52;87100.66;;;-8.05;48.56
21623;BME280;10973;46.706;12.340;2023-01-26T07:01:22;87096.41;;;-8.15;49.33
21623;BME280;10973;46.706;12.340;2023-01-26T07:03:53;87090.28;;;-8.14;49.71
21623;BME280;10973;46.706;12.340;2023-01-26T07:06:21;87093.63;;;-8.18;49.40
21623;BME280;10973;46.706;12.340;2023-01-26T07:08:48;87090.31;;;-8.19;49.04
21623;BME280;10973;46.706;12.340;2023-01-26T07:11:15;87093.56;;;-8.37;49.86
21623;BME280;10973;46.706;12.340;2023-01-26T07:13:43;87087.19;;;-8.39;49.16
21623;BME280;10973;46.706;12.340;2023-01-26T07:16:14;87086.72;;;-8.41;49.46
21623;BME280;10973;46.706;12.340;2023-01-26T07:18:42;87085.13;;;-8.37;49.92
21623;BME280;10973;46.706;12.340;2023-01-26T07:21:15;87087.03;;;-8.48;49.17
21623;BME280;10973;46.706;12.340;2023-01-26T07:23:44;87085.94;;;-8.42;49.29
21623;BME280;10973;46.706;12.340;2023-01-26T07:26:12;87079.50;;;-8.34;50.20
21623;BME280;10973;46.706;12.340;2023-01-26T07:28:40;87081.75;;;-8.28;50.23
21623;BME280;10973;46.706;12.340;2023-01-26T07:31:09;87081.69;;;-8.23;50.29
21623;BME280;10973;46.706;12.340;2023-01-26T07:33:37;87080.91;;;-8.23;49.89
21623;BME280;10973;46.706;12.340;2023-01-26T07:36:05;87072.88;;;-8.12;50.20
21623;BME280;10973;46.706;12.340;2023-01-26T07:38:33;87064.34;;;-8.02;49.93
21623;BME280;10973;46.706;12.340;2023-01-26T07:41:06;87071.31;;;-8.08;50.00
21623;BME280;10973;46.706;12.340;2023-01-26T07:43:36;87068.38;;;-7.96;50.65
21623;BME280;10973;46.706;12.340;2023-01-26T07:46:04;87060.88;;;-7.87;50.40
21623;BME280;10973;46.706;12.340;2023-01-26T07:48:32;87059.56;;;-7.85;50.80
21623;BME280;10973;46.706;12.340;2023-01-26T07:51:01;87051.03;;;-7.75;50.52
21623;BME280;10973;46.706;12.340;2023-01-26T07:53:30;87055.03;;;-7.69;50.51
21623;BME280;10973;46.706;12.340;2023-01-26T07:56:15;87049.72;;;-7.73;50.15
21623;BME280;10973;46.706;12.340;2023-01-26T07:58:43;87050.34;;;-7.62;50.46
21623;BME280;10973;46.706;12.340;2023-01-26T08:01:13;87042.28;;;-7.51;50.94
21623;BME280;10973;46.706;12.340;2023-01-26T08:03:41;87040.66;;;-7.42;51.19
21623;BME280;10973;46.706;12.340;2023-01-26T08:06:08;87036.94;;;-7.31;51.57
21623;BME280;10973;46.706;12.340;2023-01-26T08:08:40;87035.00;;;-7.20;51.27
21623;BME280;10973;46.706;12.340;2023-01-26T08:11:09;87036.09;;;-7.07;51.69
21623;BME280;10973;46.706;12.340;2023-01-26T08:13:37;87032.06;;;-6.95;51.12
21623;BME280;10973;46.706;12.340;2023-01-26T08:16:09;87037.72;;;-6.93;51.29
21623;BME280;10973;46.706;12.340;2023-01-26T08:18:42;87035.06;;;-6.88;51.96
21623;BME280;10973;46.706;12.340;2023-01-26T08:21:12;87035.94;;;-6.79;52.10
21623;BME280;10973;46.706;12.340;2023-01-26T08:23:40;87034.63;;;-6.76;51.82
21623;BME280;10973;46.706;12.340;2023-01-26T08:26:11;87038.38;;;-6.69;51.30
21623;BME280;10973;46.706;12.340;2023-01-26T08:28:40;87037.81;;;-6.66;50.94
21623;BME280;10973;46.706;12.340;2023-01-26T08:31:18;87036.16;;;-6.57;51.19
21623;BME280;10973;46.706;12.340;2023-01-26T08:33:48;87040.69;;;-6.54;51.55
21623;BME280;10973;46.706;12.340;2023-01-26T08:36:17;87033.88;;;-6.44;52.00
21623;BME280;10973;46.706;12.340;2023-01-26T08:38:48;87030.00;;;-6.42;51.98
21623;BME280;10973;46.706;12.340;2023-01-26T08:41:16;87033.94;;;-6.31;52.03
21623;BME280;10973;46.706;12.340;2023-01-26T08:43:44;87032.81;;;-6.25;52.06
21623;BME280;10973;46.706;12.340;2023-01-26T08:46:11;87037.28;;;-6.17;52.36
21623;BME280;10973;46.706;12.340;2023-01-26T08:48:38;87036.53;;;-6.04;52.65
21623;BME280;10973;46.706;12.340;2023-01-26T08:51:06;87032.50;;;-5.91;52.88
21623;BME280;10973;46.706;12.340;2023-01-26T08:53:36;87028.66;;;-5.80;52.89
21623;BME280;10973;46.706;12.340;2023-01-26T08:56:06;87021.75;;;-5.66;53.39
21623;BME280;10973;46.706;12.340;2023-01-26T08:58:34;87019.44;;;-5.54;52.88
21623;BME280;10973;46.706;12.340;2023-01-26T09:01:07;87018.97;;;-5.42;53.07
21623;BME280;10973;46.706;12.340;2023-01-26T09:03:36;87009.28;;;-5.32;52.58
21623;BME280;10973;46.706;12.340;2023-01-26T09:06:06;87014.03;;;-5.25;53.10
21623;BME280;10973;46.706;12.340;2023-01-26T09:08:34;87015.03;;;-5.13;52.84
21623;BME280;10973;46.706;12.340;2023-01-26T09:11:04;87006.81;;;-5.01;52.88
21623;BME280;10973;46.706;12.340;2023-01-26T09:13:32;87005.56;;;-4.90;52.50
21623;BME280;10973;46.706;12.340;2023-01-26T09:16:07;87000.22;;;-4.80;52.72
21623;BME280;10973;46.706;12.340;2023-01-26T09:18:34;86998.94;;;-4.69;52.67
21623;BME280;10973;46.706;12.340;2023-01-26T09:21:04;87004.66;;;-4.72;53.12
21623;BME280;10973;46.706;12.340;2023-01-26T09:23:33;87002.13;;;-4.63;52.98
21623;BME280;10973;46.706;12.340;2023-01-26T09:26:02;87004.78;;;-4.55;52.75
21623;BME280;10973;46.706;12.340;2023-01-26T09:28:29;87005.81;;;-4.56;52.51
21623;BME280;10973;46.706;12.340;2023-01-26T09:31:02;86993.63;;;-4.50;52.95
21623;BME280;10973;46.706;12.340;2023-01-26T09:33:30;86997.59;;;-4.44;53.25
21623;BME280;10973;46.706;12.340;2023-01-26T09:36:07;86998.56;;;-4.32;53.21
21623;BME280;10973;46.706;12.340;2023-01-26T09:38:35;86994.44;;;-4.19;53.44
21623;BME280;10973;46.706;12.340;2023-01-26T09:44:22;86981.00;;;-4.16;53.43
21623;BME280;10973;46.706;12.340;2023-01-26T09:47:13;86986.31;;;-4.04;53.48
21623;BME280;10973;46.706;12.340;2023-01-26T09:50:03;86977.59;;;-3.94;53.71
21623;BME280;10973;46.706;12.340;2023-01-26T09:52:57;86966.44;;;-3.90;53.12
21623;BME280;10973;46.706;12.340;2023-01-26T09:55:26;86969.47;;;-3.88;53.08
21623;BME280;10973;46.706;12.340;2023-01-26T09:58:16;86960.56;;;-3.82;53.41
21623;BME280;10973;46.706;12.340;2023-01-26T10:00:57;86964.81;;;-3.77;53.49
21623;BME280;10973;46.706;12.340;2023-01-26T10:03:42;86951.97;;;-3.69;53.53
21623;BME280;10973;46.706;12.340;2023-01-26T10:06:20;86946.72;;;-3.64;53.71
21623;BME280;10973;46.706;12.340;2023-01-26T10:08:49;86946.84;;;-3.60;53.67
21623;BME280;10973;46.706;12.340;2023-01-26T10:14:36;86936.59;;;-3.43;54.24
21623;BME280;10973;46.706;12.340;2023-01-26T10:17:14;86941.16;;;-3.40;53.73
21623;BME280;10973;46.706;12.340;2023-01-26T10:19:58;86940.69;;;-3.33;53.57
21623;BME280;10973;46.706;12.340;2023-01-26T10:22:44;86932.97;;;-3.25;54.23
21623;BME280;10973;46.706;12.340;2023-01-26T10:25:19;86926.50;;;-3.14;54.45
21623;BME280;10973;46.706;12.340;2023-01-26T10:27:51;86922.56;;;-3.03;54.65
21623;BME280;10973;46.706;12.340;2023-01-26T10:30:20;86922.56;;;-2.94;54.48
21623;BME280;10973;46.706;12.340;2023-01-26T10:32:51;86917.41;;;-2.85;54.26
21623;BME280;10973;46.706;12.340;2023-01-26T10:35:23;86909.22;;;-2.79;54.01
21623;BME280;10973;46.706;12.340;2023-01-26T10:37:51;86909.38;;;-2.75;53.76
21623;BME280;10973;46.706;12.340;2023-01-26T10:40:19;86902.41;;;-2.75;53.82
21623;BME280;10973;46.706;12.340;2023-01-26T10:42:57;86900.41;;;-2.69;54.04
21623;BME280;10973;46.706;12.340;2023-01-26T10:45:31;86894.97;;;-2.59;54.54
21623;BME280;10973;46.706;12.340;2023-01-26T10:48:22;86895.53;;;-2.45;54.88
21623;BME280;10973;46.706;12.340;2023-01-26T10:50:50;86887.63;;;-2.40;55.13
21623;BME280;10973;46.706;12.340;2023-01-26T10:53:28;86883.38;;;-2.36;54.98
21623;BME280;10973;46.706;12.340;2023-01-26T10:56:02;86883.38;;;-2.28;54.97
21623;BME280;10973;46.706;12.340;2023-01-26T10:58:51;86878.19;;;-2.19;54.78
21623;BME280;10973;46.706;12.340;2023-01-26T11:01:21;86872.84;;;-2.14;54.08
21623;BME280;10973;46.706;12.340;2023-01-26T11:04:11;86869.66;;;-2.11;53.88
21623;BME280;10973;46.706;12.340;2023-01-26T11:06:39;86868.59;;;-2.10;54.19
21623;BME280;10973;46.706;12.340;2023-01-26T11:09:15;86872.22;;;-2.02;54.20
21623;BME280;10973;46.706;12.340;2023-01-26T11:11:59;86860.38;;;-2.03;53.75
21623;BME280;10973;46.706;12.340;2023-01-26T11:14:29;86853.34;;;-1.94;54.12
21623;BME280;10973;46.706;12.340;2023-01-26T11:17:21;86854.13;;;-1.94;53.75
21623;BME280;10973;46.706;12.340;2023-01-26T11:20:14;86846.97;;;-1.97;54.34
21623;BME280;10973;46.706;12.340;2023-01-26T11:47:21;86799.78;;;-1.68;56.19
21623;BME280;10973;46.706;12.340;2023-01-26T11:59:08;86783.03;;;-1.41;56.10
21623;BME280;10973;46.706;12.340;2023-01-26T12:02:02;86786.16;;;-1.36;56.10
21623;BME280;10973;46.706;12.340;2023-01-26T12:04:37;86775.97;;;-1.32;56.17
21623;BME280;10973;46.706;12.340;2023-01-26T12:07:26;86764.78;;;-1.24;56.06
21623;BME280;10973;46.706;12.340;2023-01-26T12:09:57;86760.88;;;-1.10;56.30
21623;BME280;10973;46.706;12.340;2023-01-26T12:12:40;86765.31;;;-0.78;55.57
21623;BME280;10973;46.706;12.340;2023-01-26T12:15:21;86754.34;;;0.07;55.05
21623;BME280;10973;46.706;12.340;2023-01-26T12:20:38;86732.28;;;2.53;48.64
21623;BME280;10973;46.706;12.340;2023-01-26T12:23:29;86728.59;;;3.66;46.09
21623;BME280;10973;46.706;12.340;2023-01-26T12:26:06;86724.31;;;4.71;43.43
21623;BME280;10973;46.706;12.340;2023-01-26T12:29:00;86723.19;;;4.98;41.33
21623;BME280;10973;46.706;12.340;2023-01-26T12:32:05;86715.63;;;4.37;41.55
21623;BME280;10973;46.706;12.340;2023-01-26T12:34:36;86725.50;;;3.60;43.43
21623;BME280;10973;46.706;12.340;2023-01-26T12:40:44;86715.97;;;2.06;45.83
21623;BME280;10973;46.706;12.340;2023-01-26T12:46:26;86723.06;;;0.91;48.30
21623;BME280;10973;46.706;12.340;2023-01-26T12:49:02;86719.50;;;0.56;49.30
21623;BME280;10973;46.706;12.340;2023-01-26T12:51:40;86716.78;;;0.25;50.03
21623;BME280;10973;46.706;12.340;2023-01-26T12:54:30;86711.94;;;-0.01;50.49
21623;BME280;10973;46.706;12.340;2023-01-26T12:57:06;86707.50;;;-0.25;51.00
21623;BME280;10973;46.706;12.340;2023-01-26T12:59:39;86710.28;;;-0.42;51.27
21623;BME280;10973;46.706;12.340;2023-01-26T13:02:32;86704.88;;;-0.61;51.46
21623;BME280;10973;46.706;12.340;2023-01-26T13:05:02;86710.69;;;-0.76;51.65
21623;BME280;10973;46.706;12.340;2023-01-26T13:07:38;86705.69;;;-0.93;52.22
21623;BME280;10973;46.706;12.340;2023-01-26T13:10:19;86704.03;;;-1.10;52.69
21623;BME280;10973;46.706;12.340;2023-01-26T13:15:23;86690.38;;;-1.31;53.16
21623;BME280;10973;46.706;12.340;2023-01-26T13:17:55;86686.75;;;-1.51;52.93
21623;BME280;10973;46.706;12.340;2023-01-26T13:20:48;86689.09;;;-1.58;53.51
21623;BME280;10973;46.706;12.340;2023-01-26T13:23:40;86695.69;;;-1.69;54.19
21623;BME280;10973;46.706;12.340;2023-01-26T13:26:24;86687.72;;;-1.76;54.07
21623;BME280;10973;46.706;12.340;2023-01-26T13:29:25;86693.66;;;-1.84;54.17
21623;BME280;10973;46.706;12.340;2023-01-26T13:31:56;86694.94;;;-1.90;54.25
21623;BME280;10973;46.706;12.340;2023-01-26T13:34:41;86694.06;;;-1.94;54.16
21623;BME280;10973;46.706;12.340;2023-01-26T13:37:15;86693.47;;;-1.99;54.69
21623;BME280;10973;46.706;12.340;2023-01-26T13:39:55;86690.03;;;-2.03;54.45
21623;BME280;10973;46.706;12.340;2023-01-26T13:42:34;86696.44;;;-2.09;54.60
21623;BME280;10973;46.706;12.340;2023-01-26T13:45:24;86689.75;;;-2.10;54.40
21623;BME280;10973;46.706;12.340;2023-01-26T13:47:54;86680.81;;;-2.13;54.48
21623;BME280;10973;46.706;12.340;2023-01-26T13:50:35;86690.44;;;-2.22;54.70
21623;BME280;10973;46.706;12.340;2023-01-26T13:53:38;86684.03;;;-2.16;54.62
21623;BME280;10973;46.706;12.340;2023-01-26T13:56:24;86686.78;;;-2.21;54.89
21623;BME280;10973;46.706;12.340;2023-01-26T13:58:53;86685.16;;;-2.26;55.13
21623;BME280;10973;46.706;12.340;2023-01-26T14:01:20;86695.47;;;-2.26;55.26
21623;BME280;10973;46.706;12.340;2023-01-26T14:04:01;86691.69;;;-2.28;55.26
21623;BME280;10973;46.706;12.340;2023-01-26T14:06:29;86686.09;;;-2.30;55.39
21623;BME280;10973;46.706;12.340;2023-01-26T14:08:57;86680.75;;;-2.25;55.53
21623;BME280;10973;46.706;12.340;2023-01-26T14:11:27;86691.19;;;-2.22;55.28
21623;BME280;10973;46.706;12.340;2023-01-26T14:13:58;86693.88;;;-2.18;55.47